createdAt,value
2022-11-12T00:00:29.643Z,15.73
2022-11-12T00:02:59.635Z,18.60
2022-11-12T00:05:28.088Z,18.57
2022-11-12T00:07:56.361Z,17.17
2022-11-12T00:10:25.540Z,18.67
2022-11-12T00:12:54.268Z,13.73
2022-11-12T00:15:23.078Z,18.13
2022-11-12T00:17:51.381Z,14.53
2022-11-12T00:20:21.536Z,13.77
2022-11-12T00:25:37.789Z,13.17
2022-11-12T00:28:08.370Z,9.67
2022-11-12T00:30:39.607Z,11.03
2022-11-12T00:33:11.748Z,11.37
2022-11-12T00:35:41.424Z,9.57
2022-11-12T00:38:10.799Z,11.40
2022-11-12T00:40:42.199Z,9.57
2022-11-12T00:43:10.424Z,7.90
2022-11-12T00:45:40.086Z,10.23
2022-11-12T00:48:09.578Z,8.40
2022-11-12T00:50:37.819Z,8.87
2022-11-12T00:53:26.639Z,8.20
2022-11-12T00:56:02.293Z,8.80
2022-11-12T00:58:33.069Z,8.77
2022-11-12T01:01:08.445Z,7.03
2022-11-12T01:03:39.025Z,9.43
2022-11-12T01:06:09.930Z,7.63
2022-11-12T01:08:43.991Z,8.63
2022-11-12T01:11:15.566Z,10.10
2022-11-12T01:13:48.091Z,9.90
2022-11-12T01:16:19.923Z,9.10
2022-11-12T01:18:49.258Z,8.63
2022-11-12T01:21:19.794Z,10.10
2022-11-12T01:23:50.894Z,12.47
2022-11-12T01:26:22.446Z,9.30
2022-11-12T01:28:50.764Z,8.53
2022-11-12T01:31:22.521Z,9.20
2022-11-12T01:33:55.092Z,10.00
2022-11-12T01:36:25.990Z,12.63
2022-11-12T01:38:57.044Z,9.10
2022-11-12T01:41:30.301Z,10.13
2022-11-12T01:44:33.520Z,8.70
2022-11-12T01:47:09.290Z,8.93
2022-11-12T01:49:52.416Z,12.37
2022-11-12T01:52:27.940Z,6.97
2022-11-12T01:55:05.001Z,8.83
2022-11-12T01:57:39.663Z,9.27
2022-11-12T02:00:16.183Z,9.97
2022-11-12T02:02:49.368Z,8.77
2022-11-12T02:05:18.945Z,9.53
2022-11-12T02:07:49.458Z,9.00
2022-11-12T02:10:19.322Z,7.93
2022-11-12T02:13:14.745Z,8.87
2022-11-12T02:15:51.298Z,7.40
2022-11-12T02:18:20.495Z,9.27
2022-11-12T02:20:57.040Z,7.97
2022-11-12T02:23:29.144Z,10.40
2022-11-12T02:25:58.633Z,10.00
2022-11-12T02:28:27.659Z,10.00
2022-11-12T02:30:56.291Z,8.37
2022-11-12T02:33:24.776Z,9.63
2022-11-12T02:35:52.946Z,10.20
2022-11-12T02:38:25.632Z,11.27
2022-11-12T02:40:56.884Z,8.57
2022-11-12T02:43:26.432Z,10.63
2022-11-12T02:45:56.263Z,9.93
2022-11-12T02:48:26.162Z,10.73
2022-11-12T02:51:01.089Z,9.53
2022-11-12T02:53:32.558Z,9.33
2022-11-12T02:56:03.561Z,10.07
2022-11-12T02:58:34.356Z,9.90
2022-11-12T03:01:06.168Z,8.03
2022-11-12T03:03:36.788Z,12.10
2022-11-12T03:06:06.825Z,10.93
2022-11-12T03:08:57.742Z,7.90
2022-11-12T03:11:39.440Z,8.73
2022-11-12T03:14:20.793Z,10.83
2022-11-12T03:16:53.160Z,9.87
2022-11-12T03:19:21.573Z,9.70
2022-11-12T03:21:50.932Z,11.93
2022-11-12T03:24:21.232Z,10.03
2022-11-12T03:26:54.096Z,11.73
2022-11-12T03:29:23.411Z,11.13
2022-11-12T03:31:51.643Z,10.13
2022-11-12T03:34:22.100Z,10.20
2022-11-12T03:36:52.798Z,11.00
2022-11-12T03:39:34.231Z,9.17
2022-11-12T03:42:10.228Z,9.23
2022-11-12T03:44:47.952Z,8.17
2022-11-12T03:47:26.937Z,10.40
2022-11-12T03:49:58.071Z,8.80
2022-11-12T03:52:26.299Z,10.97
2022-11-12T03:54:57.055Z,13.90
2022-11-12T03:57:27.146Z,8.07
2022-11-12T03:59:56.813Z,8.87
2022-11-12T04:02:26.690Z,10.77
2022-11-12T04:05:13.868Z,9.27
2022-11-12T04:07:59.542Z,12.27
2022-11-12T04:10:32.201Z,9.60
2022-11-12T04:13:21.390Z,9.37
2022-11-12T04:16:22.480Z,10.17
2022-11-12T04:19:11.297Z,11.20
2022-11-12T04:21:58.187Z,8.73
2022-11-12T04:24:46.943Z,11.73
2022-11-12T04:27:17.643Z,12.67
2022-11-12T04:30:05.922Z,12.03
2022-11-12T04:32:36.683Z,10.53
2022-11-12T04:35:06.617Z,10.43
2022-11-12T04:37:44.372Z,9.43
2022-11-12T04:40:31.531Z,9.43
2022-11-12T04:43:17.789Z,9.57
2022-11-12T04:45:53.622Z,8.10
2022-11-12T04:48:41.098Z,10.40
2022-11-12T04:51:24.479Z,10.53
2022-11-12T04:53:53.127Z,9.30
2022-11-12T04:56:21.391Z,10.80
2022-11-12T04:58:49.735Z,9.17
2022-11-12T05:01:20.623Z,8.67
2022-11-12T05:03:58.933Z,14.73
2022-11-12T05:06:51.161Z,10.90
2022-11-12T05:09:20.089Z,10.83
2022-11-12T05:11:49.601Z,9.27
2022-11-12T05:14:17.848Z,11.60
2022-11-12T05:16:49.768Z,13.70
2022-11-12T05:19:19.628Z,8.00
2022-11-12T05:22:06.401Z,10.20
2022-11-12T05:24:42.750Z,10.33
2022-11-12T05:27:15.056Z,8.27
2022-11-12T05:29:47.597Z,10.13
2022-11-12T05:32:26.200Z,10.87
2022-11-12T05:34:58.786Z,9.07
2022-11-12T05:37:27.047Z,9.13
2022-11-12T05:39:57.683Z,9.57
2022-11-12T05:42:28.011Z,7.00
2022-11-12T05:45:38.595Z,9.17
2022-11-12T05:48:25.635Z,8.20
2022-11-12T05:51:18.268Z,7.43
2022-11-12T05:54:04.324Z,9.20
2022-11-12T05:56:50.324Z,8.20
2022-11-12T05:59:20.860Z,10.13
2022-11-12T06:01:49.474Z,8.50
2022-11-12T06:07:51.218Z,6.33
2022-11-12T06:10:20.929Z,10.20
2022-11-12T06:16:20.202Z,10.37
2022-11-12T06:18:52.363Z,8.53
2022-11-12T06:21:21.871Z,8.30
2022-11-12T06:23:56.351Z,8.60
2022-11-12T06:26:26.937Z,8.33
2022-11-12T06:28:55.994Z,7.57
2022-11-12T06:31:25.041Z,7.30
2022-11-12T06:34:36.896Z,9.10
2022-11-12T06:37:35.453Z,8.10
2022-11-12T06:40:06.748Z,7.93
2022-11-12T06:42:36.906Z,8.13
2022-11-12T06:45:07.422Z,11.30
2022-11-12T06:47:35.836Z,8.77
2022-11-12T06:50:06.436Z,16.50
2022-11-12T06:52:36.220Z,11.37
2022-11-12T06:55:09.649Z,10.13
2022-11-12T06:57:39.337Z,9.70
2022-11-12T07:00:11.857Z,10.87
2022-11-12T07:02:40.185Z,11.70
2022-11-12T07:05:09.897Z,9.73
2022-11-12T07:07:39.541Z,14.90
2022-11-12T07:10:12.359Z,10.67
2022-11-12T07:12:40.635Z,10.03
2022-11-12T07:15:12.114Z,8.13
2022-11-12T07:20:33.044Z,12.63
2022-11-12T07:23:37.382Z,8.30
2022-11-12T07:29:42.676Z,8.50
2022-11-12T07:32:14.031Z,8.07
2022-11-12T07:34:43.511Z,6.60
2022-11-12T07:37:18.081Z,6.70
2022-11-12T07:39:46.531Z,6.83
2022-11-12T07:42:16.189Z,7.77
2022-11-12T07:44:48.358Z,7.40
2022-11-12T07:47:25.724Z,6.50
2022-11-12T07:50:08.846Z,6.37
2022-11-12T07:52:39.659Z,6.57
2022-11-12T07:55:08.861Z,10.63
2022-11-12T07:57:38.802Z,11.03
2022-11-12T08:03:01.631Z,8.20
2022-11-12T08:05:32.872Z,7.60
2022-11-12T08:08:06.535Z,7.53
2022-11-12T08:10:35.270Z,7.13
2022-11-12T08:13:07.067Z,6.07
2022-11-12T08:15:36.841Z,7.40
2022-11-12T08:18:06.850Z,6.50
2022-11-12T08:20:39.271Z,10.13
2022-11-12T08:23:10.023Z,7.57
2022-11-12T08:25:38.415Z,8.27
2022-11-12T08:28:09.576Z,7.73
2022-11-12T08:30:48.257Z,9.27
2022-11-12T08:33:21.160Z,8.43
2022-11-12T08:36:05.125Z,9.00
2022-11-12T08:38:42.857Z,8.40
2022-11-12T08:41:14.955Z,9.73
2022-11-12T08:43:48.632Z,8.33
2022-11-12T08:46:18.806Z,12.37
2022-11-12T08:48:47.249Z,10.97
2022-11-12T08:51:19.001Z,8.87
2022-11-12T08:57:29.360Z,9.93
2022-11-12T09:00:04.223Z,9.50
2022-11-12T09:02:32.631Z,9.60
2022-11-12T09:05:04.190Z,11.57
2022-11-12T09:07:49.967Z,13.03
2022-11-12T09:10:19.205Z,10.50
2022-11-12T09:19:42.880Z,11.97
2022-11-12T09:22:54.352Z,8.23
2022-11-12T09:25:33.786Z,14.13
2022-11-12T09:28:14.509Z,10.40
2022-11-12T09:30:51.552Z,12.20
2022-11-12T09:33:30.427Z,12.17
2022-11-12T09:36:03.719Z,10.10
2022-11-12T09:38:48.605Z,10.90
2022-11-12T09:41:59.260Z,13.70
2022-11-12T09:44:36.827Z,12.23
2022-11-12T09:47:20.764Z,10.53
2022-11-12T09:54:05.553Z,12.03
2022-11-12T09:57:12.153Z,13.37
2022-11-12T10:00:07.637Z,11.00
2022-11-12T10:02:42.428Z,14.07
2022-11-12T10:05:28.652Z,11.60
2022-11-12T10:08:46.637Z,14.23
2022-11-12T10:12:22.141Z,17.63
2022-11-12T10:15:32.800Z,13.70
2022-11-12T10:18:25.648Z,12.20
2022-11-12T10:21:21.015Z,17.20
2022-11-12T10:23:54.297Z,12.10
2022-11-12T10:26:27.886Z,15.57
2022-11-12T10:32:20.355Z,15.10
2022-11-12T10:34:49.464Z,14.80
2022-11-12T10:37:25.028Z,17.87
2022-11-12T10:39:53.876Z,17.55
2022-11-12T10:42:23.844Z,15.93
2022-11-12T10:48:44.571Z,16.90
2022-11-12T10:51:29.788Z,16.67
2022-11-12T10:53:59.890Z,15.20
2022-11-12T10:56:30.654Z,14.27
2022-11-12T10:59:16.076Z,15.90
2022-11-12T11:01:46.061Z,12.80
2022-11-12T11:04:23.740Z,11.90
2022-11-12T11:14:42.885Z,12.50
2022-11-12T11:17:21.220Z,10.73
2022-11-12T11:19:49.534Z,12.60
2022-11-12T11:22:35.475Z,17.50
2022-11-12T11:25:38.103Z,17.37
2022-11-12T11:28:42.268Z,18.40
2022-11-12T11:31:43.945Z,16.50
2022-11-12T11:34:26.540Z,13.27
2022-11-12T11:37:03.972Z,12.77
2022-11-12T11:39:42.380Z,13.30
2022-11-12T11:56:21.098Z,10.37
2022-11-12T11:59:03.813Z,11.53
2022-11-12T12:01:46.752Z,11.00
2022-11-12T12:04:40.869Z,14.87
2022-11-12T12:07:18.523Z,14.20
2022-11-12T12:09:56.878Z,10.30
2022-11-12T12:13:08.052Z,11.00
2022-11-12T12:16:11.810Z,14.00
2022-11-12T12:18:54.909Z,13.03
2022-11-12T12:21:46.905Z,17.10
2022-11-12T12:24:40.317Z,11.20
2022-11-12T12:30:43.537Z,12.47
2022-11-12T12:33:24.170Z,13.10
2022-11-12T12:35:57.276Z,11.70
2022-11-12T12:45:05.081Z,9.83
2022-11-12T12:47:48.656Z,13.40
2022-11-12T12:57:34.606Z,13.30
2022-11-12T13:00:35.664Z,12.27
2022-11-12T13:03:04.183Z,11.57
2022-11-12T13:05:34.372Z,10.03
2022-11-12T13:10:59.596Z,12.73
2022-11-12T13:13:33.022Z,14.57
2022-11-12T13:16:02.693Z,11.80
2022-11-12T13:19:02.927Z,11.93
2022-11-12T13:21:37.514Z,15.27
2022-11-12T13:24:47.329Z,12.00
2022-11-12T13:28:22.240Z,14.20
2022-11-12T13:31:22.396Z,15.97
2022-11-12T13:34:58.436Z,14.27
2022-11-12T13:38:08.534Z,12.00
2022-11-12T13:41:11.959Z,14.33
2022-11-12T13:47:21.499Z,19.00
2022-11-12T13:49:51.653Z,17.67
2022-11-12T13:52:23.727Z,20.40
2022-11-12T13:55:04.139Z,20.13
2022-11-12T13:57:33.662Z,16.33
2022-11-12T14:00:42.514Z,22.20
2022-11-12T14:03:22.945Z,15.40
2022-11-12T14:05:52.846Z,13.73
2022-11-12T14:15:39.888Z,17.07
2022-11-12T14:18:27.335Z,16.87
2022-11-12T14:21:11.506Z,14.17
2022-11-12T14:23:49.965Z,14.93
2022-11-12T14:26:43.888Z,16.47
2022-11-12T14:29:18.465Z,14.00
2022-11-12T14:31:46.870Z,13.97
2022-11-12T14:34:40.440Z,13.93
2022-11-12T14:44:24.552Z,12.37
2022-11-12T14:47:04.568Z,14.07
2022-11-12T14:49:45.502Z,15.67
2022-11-12T14:53:02.648Z,13.70
2022-11-12T14:55:43.339Z,16.70
2022-11-12T14:58:17.072Z,15.47
2022-11-12T15:04:37.473Z,15.03
2022-11-12T15:07:34.367Z,20.00
2022-11-12T15:10:29.920Z,18.00
2022-11-12T15:13:08.508Z,19.90
2022-11-12T15:16:12.437Z,21.10
2022-11-12T15:18:58.786Z,19.53
2022-11-12T15:21:30.846Z,17.47
2022-11-12T15:24:09.225Z,16.50
2022-11-12T15:26:41.072Z,17.50
2022-11-12T15:29:22.062Z,16.37
2022-11-12T15:31:52.414Z,13.30
2022-11-12T15:37:23.980Z,16.33
2022-11-12T15:39:58.219Z,18.27
2022-11-12T15:42:30.236Z,16.10
2022-11-12T15:45:01.741Z,15.97
2022-11-12T15:47:31.829Z,19.07
2022-11-12T15:50:56.146Z,20.57
2022-11-12T15:57:03.015Z,16.27
2022-11-12T15:59:36.229Z,14.60
2022-11-12T16:02:18.977Z,18.17
2022-11-12T16:07:32.391Z,12.30
2022-11-12T16:10:03.750Z,18.77
2022-11-12T16:12:33.404Z,26.10
2022-11-12T16:15:02.871Z,14.43
2022-11-12T16:17:31.432Z,17.63
2022-11-12T16:20:01.305Z,19.47
2022-11-12T16:22:29.722Z,20.10
2022-11-12T16:25:00.963Z,17.73
2022-11-12T16:27:34.014Z,23.60
2022-11-12T16:30:06.925Z,19.77
2022-11-12T16:39:52.333Z,22.00
2022-11-12T16:42:41.583Z,15.90
2022-11-12T16:45:14.133Z,16.97
2022-11-12T16:47:48.067Z,20.60
2022-11-12T16:50:19.456Z,19.17
2022-11-12T16:52:47.802Z,16.60
2022-11-12T16:55:36.254Z,18.97
2022-11-12T16:58:16.467Z,23.90
2022-11-12T17:00:51.433Z,21.23
2022-11-12T17:03:22.749Z,24.00
2022-11-12T17:06:03.944Z,24.60
2022-11-12T17:08:40.554Z,23.23
2022-11-12T17:11:10.281Z,24.80
2022-11-12T17:13:43.648Z,20.50
2022-11-12T17:16:33.431Z,18.70
2022-11-12T17:19:13.402Z,22.47
2022-11-12T17:25:17.344Z,19.83
2022-11-12T17:27:52.179Z,20.90
2022-11-12T17:30:20.628Z,22.17
2022-11-12T17:33:13.726Z,16.63
2022-11-12T17:36:09.751Z,22.13
2022-11-12T17:38:42.392Z,25.67
2022-11-12T17:41:11.397Z,15.60
2022-11-12T17:43:40.895Z,19.13
2022-11-12T17:46:10.634Z,14.93
2022-11-12T17:49:25.913Z,14.97
2022-11-12T17:52:50.567Z,14.07
2022-11-12T17:56:24.801Z,12.17
2022-11-12T17:59:15.136Z,14.60
2022-11-12T18:01:44.150Z,13.63
2022-11-12T18:04:18.117Z,10.83
2022-11-12T18:06:53.049Z,13.17
2022-11-12T18:09:26.850Z,11.83
2022-11-12T18:12:06.129Z,13.40
2022-11-12T18:14:45.801Z,14.17
2022-11-12T18:17:15.562Z,12.30
2022-11-12T18:19:46.095Z,14.90
2022-11-12T18:22:19.986Z,19.60
2022-11-12T18:24:49.191Z,13.43
2022-11-12T18:27:22.056Z,17.60
2022-11-12T18:29:53.156Z,15.95
2022-11-12T18:33:13.534Z,19.90
2022-11-12T18:39:21.219Z,42.57
2022-11-12T18:42:10.425Z,45.27
2022-11-12T18:48:41.462Z,35.43
2022-11-12T18:51:11.378Z,27.70
2022-11-12T18:53:43.008Z,23.70
2022-11-12T18:56:15.600Z,24.30
2022-11-12T18:58:44.275Z,24.53
2022-11-12T19:01:15.957Z,27.27
2022-11-12T19:03:46.298Z,24.23
2022-11-12T19:06:15.372Z,27.37
2022-11-12T19:08:43.974Z,22.33
2022-11-12T19:11:14.075Z,21.63
2022-11-12T19:14:13.207Z,24.60
2022-11-12T19:16:44.974Z,17.90
2022-11-12T19:19:30.871Z,21.80
2022-11-12T19:22:18.473Z,19.80
2022-11-12T19:24:47.334Z,21.60
2022-11-12T19:27:17.114Z,23.67
2022-11-12T19:29:47.791Z,25.63
2022-11-12T19:32:22.641Z,22.60
2022-11-12T19:34:52.296Z,23.43
2022-11-12T19:37:37.020Z,20.97
2022-11-12T19:40:29.186Z,17.50
2022-11-12T19:46:19.662Z,17.87
2022-11-12T19:49:09.557Z,21.77
2022-11-12T19:51:59.546Z,20.83
2022-11-12T19:55:03.948Z,27.03
2022-11-12T19:57:36.837Z,22.93
2022-11-12T20:00:22.536Z,23.67
2022-11-12T20:02:55.496Z,25.00
2022-11-12T20:05:31.552Z,22.87
2022-11-12T20:08:09.829Z,23.90
2022-11-12T20:10:40.249Z,25.30
2022-11-12T20:13:13.571Z,23.47
2022-11-12T20:15:43.683Z,24.10
2022-11-12T20:18:12.592Z,23.63
2022-11-12T20:21:05.152Z,25.43
2022-11-12T20:24:07.132Z,25.37
2022-11-12T20:26:39.358Z,23.40
2022-11-12T20:29:09.328Z,22.13
2022-11-12T20:31:37.992Z,24.13
2022-11-12T20:34:06.416Z,23.00
2022-11-12T20:36:54.927Z,20.93
2022-11-12T20:39:58.968Z,23.17
2022-11-12T20:42:27.521Z,20.37
2022-11-12T20:44:57.028Z,21.97
2022-11-12T20:47:26.592Z,25.17
2022-11-12T20:49:54.831Z,26.80
2022-11-12T20:52:39.855Z,25.70
2022-11-12T20:55:10.746Z,24.13
2022-11-12T20:57:39.018Z,23.90
2022-11-12T21:00:13.502Z,23.53
2022-11-12T21:02:42.604Z,24.40
2022-11-12T21:05:11.068Z,22.50
2022-11-12T21:08:06.510Z,20.77
2022-11-12T21:14:06.148Z,22.67
2022-11-12T21:19:44.645Z,23.70
2022-11-12T21:22:14.912Z,21.20
2022-11-12T21:24:53.880Z,18.87
2022-11-12T21:27:23.888Z,22.20
2022-11-12T21:29:53.523Z,19.87
2022-11-12T21:32:45.273Z,22.30
2022-11-12T21:35:13.922Z,24.30
2022-11-12T21:37:42.155Z,23.73
2022-11-12T21:40:11.418Z,22.83
2022-11-12T21:42:48.037Z,20.90
2022-11-12T21:45:20.725Z,24.20
2022-11-12T21:47:49.062Z,23.80
2022-11-12T21:50:18.756Z,19.87
2022-11-12T21:52:47.011Z,29.07
2022-11-12T21:55:17.722Z,34.50
2022-11-12T21:57:48.277Z,34.07
2022-11-12T22:00:41.088Z,37.60
2022-11-12T22:03:07.652Z,34.30
2022-11-12T22:05:38.346Z,45.90
2022-11-12T22:08:08.329Z,41.00
2022-11-12T22:10:47.635Z,51.00
2022-11-12T22:13:31.261Z,46.70
2022-11-12T22:16:12.076Z,51.77
2022-11-12T22:18:40.903Z,35.67
2022-11-12T22:21:11.570Z,29.60
2022-11-12T22:23:46.250Z,25.13
2022-11-12T22:26:16.570Z,25.83
2022-11-12T22:28:55.581Z,29.53
2022-11-12T22:31:30.469Z,20.83
2022-11-12T22:34:00.834Z,21.37
2022-11-12T22:36:35.733Z,22.87
2022-11-12T22:39:06.195Z,21.93
2022-11-12T22:41:51.860Z,20.13
2022-11-12T22:44:43.463Z,33.07
2022-11-12T22:47:45.817Z,49.07
2022-11-12T22:50:45.156Z,36.60
2022-11-12T22:53:48.688Z,44.80
2022-11-12T22:56:34.673Z,44.07
2022-11-12T22:59:11.708Z,32.83
2022-11-12T23:01:43.602Z,32.90
2022-11-12T23:04:35.626Z,35.53
2022-11-12T23:10:45.979Z,35.97
2022-11-12T23:13:15.808Z,30.37
2022-11-12T23:15:52.936Z,28.27
2022-11-12T23:18:23.772Z,32.13
2022-11-12T23:20:55.266Z,35.70
2022-11-12T23:23:30.275Z,28.73
2022-11-12T23:26:13.056Z,45.77
2022-11-12T23:28:44.587Z,26.83
2022-11-12T23:31:16.632Z,37.40
2022-11-12T23:33:50.226Z,39.47
2022-11-12T23:45:53.982Z,27.27
2022-11-12T23:48:40.857Z,28.23
2022-11-12T23:51:14.030Z,35.40
2022-11-12T23:53:43.679Z,32.30
2022-11-12T23:56:16.172Z,31.23
2022-11-12T23:58:44.674Z,23.60
